createdAt,value
2023-03-31T00:00:12.099Z,100378.63
2023-03-31T00:02:41.854Z,100368.16
2023-03-31T00:05:10.152Z,100377.75
2023-03-31T00:07:38.239Z,100382.09
2023-03-31T00:10:17.104Z,100377.75
2023-03-31T00:12:45.047Z,100372.53
2023-03-31T00:15:11.859Z,100369.91
2023-03-31T00:17:38.545Z,100368.16
2023-03-31T00:20:06.197Z,100363.84
2023-03-31T00:22:32.879Z,100369.91
2023-03-31T00:24:59.556Z,100363.84
2023-03-31T00:27:28.338Z,100365.56
2023-03-31T00:29:55.742Z,100348.19
2023-03-31T00:32:22.677Z,100346.44
2023-03-31T00:34:49.352Z,100349.06
2023-03-31T00:37:16.101Z,100342.09
2023-03-31T00:39:43.400Z,100336.88
2023-03-31T00:42:13.197Z,100333.41
2023-03-31T00:45:31.816Z,100338.63
2023-03-31T00:48:11.340Z,100338.63
2023-03-31T00:50:49.026Z,100331.66
2023-03-31T00:53:18.503Z,100329.91
2023-03-31T00:55:53.024Z,100333.41
2023-03-31T00:58:21.902Z,100333.41
2023-03-31T01:00:52.984Z,100339.47
2023-03-31T01:03:22.883Z,100329.91
2023-03-31T01:05:54.937Z,100333.41
2023-03-31T01:08:26.296Z,100324.72
2023-03-31T01:11:03.393Z,100329.06
2023-03-31T01:13:32.102Z,100322.97
2023-03-31T01:15:58.791Z,100317.75
2023-03-31T01:18:25.782Z,100319.47
2023-03-31T01:21:10.764Z,100315.16
2023-03-31T01:24:05.302Z,100321.22
2023-03-31T01:26:47.054Z,100310.81
2023-03-31T01:29:41.517Z,100317.75
2023-03-31T01:32:55.518Z,100312.53
2023-03-31T01:36:01.501Z,100308.19
2023-03-31T01:39:07.271Z,100306.44
2023-03-31T01:41:49.152Z,100306.44
2023-03-31T01:44:18.824Z,100311.66
2023-03-31T01:47:07.054Z,100316.88
2023-03-31T01:49:57.460Z,100309.94
2023-03-31T01:52:30.285Z,100306.44
2023-03-31T01:55:34.268Z,100296.88
2023-03-31T01:58:08.572Z,100292.56
2023-03-31T02:00:42.170Z,100307.31
2023-03-31T02:03:19.405Z,100296.88
2023-03-31T02:06:03.122Z,100301.22
2023-03-31T02:08:38.198Z,100287.34
2023-03-31T02:11:05.000Z,100301.25
2023-03-31T02:13:34.630Z,100296.00
2023-03-31T02:16:07.446Z,100300.34
2023-03-31T02:18:38.376Z,100298.59
2023-03-31T02:21:08.107Z,100302.06
2023-03-31T02:23:37.917Z,100292.53
2023-03-31T02:26:13.549Z,100291.66
2023-03-31T02:28:40.858Z,100292.53
2023-03-31T02:31:26.006Z,100302.94
2023-03-31T02:33:53.325Z,100303.84
2023-03-31T02:36:21.632Z,100305.56
2023-03-31T02:39:08.601Z,100303.81
2023-03-31T02:41:35.966Z,100303.84
2023-03-31T02:44:03.001Z,100302.09
2023-03-31T02:46:30.377Z,100299.47
2023-03-31T02:49:01.282Z,100302.06
2023-03-31T02:51:46.931Z,100304.69
2023-03-31T02:54:19.246Z,100305.56
2023-03-31T02:57:02.352Z,100296.00
2023-03-31T02:59:44.278Z,100298.59
2023-03-31T03:02:34.980Z,100296.88
2023-03-31T03:05:08.976Z,100298.59
2023-03-31T03:07:56.013Z,100298.59
2023-03-31T03:10:37.781Z,100296.88
2023-03-31T03:13:33.539Z,100290.75
2023-03-31T03:16:14.070Z,100289.91
2023-03-31T03:18:40.950Z,100292.53
2023-03-31T03:21:07.597Z,100296.88
2023-03-31T03:23:34.264Z,100294.25
2023-03-31T03:26:01.234Z,100295.13
2023-03-31T03:28:27.931Z,100293.41
2023-03-31T03:30:54.642Z,100298.59
2023-03-31T03:33:25.089Z,100296.00
2023-03-31T03:35:52.006Z,100295.16
2023-03-31T03:38:18.728Z,100289.06
2023-03-31T03:40:45.988Z,100294.28
2023-03-31T03:43:13.322Z,100283.84
2023-03-31T03:45:39.956Z,100287.34
2023-03-31T03:48:06.872Z,100290.78
2023-03-31T03:50:36.547Z,100289.94
2023-03-31T03:53:03.250Z,100287.31
2023-03-31T03:55:29.924Z,100286.47
2023-03-31T03:57:56.609Z,100289.91
2023-03-31T04:00:23.566Z,100289.91
2023-03-31T04:02:50.303Z,100291.66
2023-03-31T04:05:17.298Z,100299.44
2023-03-31T04:07:43.958Z,100289.91
2023-03-31T04:10:11.026Z,100289.06
2023-03-31T04:12:37.902Z,100286.47
2023-03-31T04:15:08.105Z,100282.94
2023-03-31T04:17:35.066Z,100286.44
2023-03-31T04:20:13.593Z,100282.09
2023-03-31T04:22:47.034Z,100293.38
2023-03-31T04:25:17.358Z,100288.19
2023-03-31T04:27:55.860Z,100290.78
2023-03-31T04:30:24.660Z,100282.09
2023-03-31T04:33:04.200Z,100284.69
2023-03-31T04:35:52.712Z,100280.34
2023-03-31T04:38:22.061Z,100281.25
2023-03-31T04:40:51.031Z,100280.34
2023-03-31T04:43:19.268Z,100289.91
2023-03-31T04:45:46.132Z,100276.03
2023-03-31T04:48:13.307Z,100285.56
2023-03-31T04:50:40.095Z,100276.91
2023-03-31T04:53:07.136Z,100281.22
2023-03-31T04:55:34.207Z,100289.06
2023-03-31T04:58:01.045Z,100283.84
2023-03-31T05:00:28.973Z,100291.66
2023-03-31T05:02:57.173Z,100288.19
2023-03-31T05:05:23.986Z,100299.47
2023-03-31T05:07:50.903Z,100295.13
2023-03-31T05:10:17.695Z,100295.13
2023-03-31T05:12:44.711Z,100292.53
2023-03-31T05:15:11.645Z,100302.09
2023-03-31T05:17:38.411Z,100299.47
2023-03-31T05:20:06.962Z,100292.53
2023-03-31T05:22:42.573Z,100299.47
2023-03-31T05:25:11.929Z,100295.13
2023-03-31T05:27:38.675Z,100290.81
2023-03-31T05:30:06.174Z,100296.03
2023-03-31T05:32:32.912Z,100299.47
2023-03-31T05:34:59.689Z,100298.63
2023-03-31T05:37:27.367Z,100296.00
2023-03-31T05:39:54.077Z,100293.41
2023-03-31T05:42:21.251Z,100288.19
2023-03-31T05:44:48.026Z,100293.41
2023-03-31T05:47:14.854Z,100291.66
2023-03-31T05:49:41.592Z,100290.78
2023-03-31T05:52:09.239Z,100299.47
2023-03-31T05:54:36.002Z,100291.66
2023-03-31T05:57:03.330Z,100302.06
2023-03-31T05:59:30.171Z,100300.34
2023-03-31T06:01:56.956Z,100305.56
2023-03-31T06:04:24.546Z,100298.63
2023-03-31T06:06:51.324Z,100304.72
2023-03-31T06:09:18.484Z,100297.78
2023-03-31T06:11:45.330Z,100300.38
2023-03-31T06:14:12.143Z,100305.56
2023-03-31T06:16:39.427Z,100301.25
2023-03-31T06:19:06.122Z,100304.72
2023-03-31T06:21:33.117Z,100303.84
2023-03-31T06:24:00.746Z,100298.66
2023-03-31T06:26:27.960Z,100308.22
2023-03-31T06:28:54.835Z,100298.63
2023-03-31T06:31:24.062Z,100306.47
2023-03-31T06:33:51.899Z,100307.34
2023-03-31T06:36:21.487Z,100308.19
2023-03-31T06:38:49.344Z,100310.78
2023-03-31T06:41:17.582Z,100314.28
2023-03-31T06:43:44.868Z,100310.81
2023-03-31T06:46:14.329Z,100307.31
2023-03-31T06:48:42.071Z,100311.69
2023-03-31T06:51:08.969Z,100310.81
2023-03-31T06:53:36.734Z,100308.22
2023-03-31T06:56:04.841Z,100314.28
2023-03-31T06:58:31.956Z,100314.28
2023-03-31T07:00:59.438Z,100313.44
2023-03-31T07:03:26.432Z,100308.19
2023-03-31T07:05:54.680Z,100312.53
2023-03-31T07:08:22.795Z,100316.88
2023-03-31T07:10:54.085Z,100315.16
2023-03-31T07:13:21.005Z,100316.88
2023-03-31T07:15:48.909Z,100314.25
2023-03-31T07:18:16.702Z,100322.94
2023-03-31T07:20:44.181Z,100319.47
2023-03-31T07:23:10.988Z,100325.53
2023-03-31T07:25:37.678Z,100321.19
2023-03-31T07:28:06.061Z,100325.53
2023-03-31T07:30:33.399Z,100327.25
2023-03-31T07:33:00.649Z,100328.13
2023-03-31T07:35:27.471Z,100328.09
2023-03-31T07:37:57.996Z,100322.00
2023-03-31T07:40:27.170Z,100322.00
2023-03-31T07:42:54.627Z,100324.59
2023-03-31T07:45:23.464Z,100329.81
2023-03-31T07:47:50.577Z,100333.28
2023-03-31T07:50:18.162Z,100324.59
2023-03-31T07:52:46.898Z,100326.28
2023-03-31T07:55:13.975Z,100319.25
2023-03-31T07:57:41.593Z,100322.72
2023-03-31T08:00:10.959Z,100323.56
2023-03-31T08:02:38.140Z,100322.66
2023-03-31T08:05:07.323Z,100326.94
2023-03-31T08:07:35.762Z,100325.16
2023-03-31T08:10:06.016Z,100337.31
2023-03-31T08:12:32.894Z,100339.84
2023-03-31T08:14:59.611Z,100338.06
2023-03-31T08:17:28.875Z,100334.50
2023-03-31T08:19:55.555Z,100327.47
2023-03-31T08:22:23.509Z,100332.59
2023-03-31T08:24:50.295Z,100327.28
2023-03-31T08:27:17.181Z,100318.53
2023-03-31T08:29:43.935Z,100328.03
2023-03-31T08:32:10.745Z,100324.50
2023-03-31T08:34:38.176Z,100326.19
2023-03-31T08:37:05.927Z,100330.50
2023-03-31T08:39:34.223Z,100334.00
2023-03-31T08:42:07.612Z,100334.03
2023-03-31T08:44:45.816Z,100327.91
2023-03-31T08:47:18.236Z,100331.31
2023-03-31T09:01:09.575Z,100336.56
2023-03-31T09:04:12.459Z,100329.03
2023-03-31T09:07:04.914Z,100334.81
2023-03-31T09:09:56.408Z,100328.66
2023-03-31T09:12:23.030Z,100327.03
2023-03-31T09:15:38.978Z,100336.16
2023-03-31T09:18:30.110Z,100341.66
2023-03-31T09:21:23.117Z,100340.94
2023-03-31T09:24:13.145Z,100344.53
2023-03-31T09:26:46.785Z,100336.84
2023-03-31T09:29:21.107Z,100336.97
2023-03-31T09:31:47.862Z,100345.81
2023-03-31T09:34:19.367Z,100345.97
2023-03-31T09:36:46.437Z,100346.03
2023-03-31T09:39:15.152Z,100349.63
2023-03-31T09:41:49.468Z,100348.03
2023-03-31T09:44:23.989Z,100348.13
2023-03-31T09:46:51.924Z,100350.78
2023-03-31T09:49:21.819Z,100351.69
2023-03-31T09:51:56.869Z,100343.00
2023-03-31T09:54:29.476Z,100342.00
2023-03-31T09:56:56.174Z,100334.91
2023-03-31T09:59:31.750Z,100340.94
2023-03-31T10:02:02.746Z,100340.94
2023-03-31T10:04:33.974Z,100336.47
2023-03-31T10:07:04.172Z,100349.47
2023-03-31T10:09:33.669Z,100348.47
2023-03-31T10:12:08.325Z,100347.66
2023-03-31T10:14:45.995Z,100353.69
2023-03-31T10:17:18.658Z,100348.38
2023-03-31T10:19:51.351Z,100339.41
2023-03-31T10:22:21.263Z,100352.22
2023-03-31T10:24:49.994Z,100345.00
2023-03-31T10:27:28.786Z,100344.94
2023-03-31T10:30:01.421Z,100349.28
2023-03-31T10:32:38.351Z,100347.63
2023-03-31T10:35:43.614Z,100346.00
2023-03-31T10:38:27.930Z,100348.63
2023-03-31T10:40:57.567Z,100349.53
2023-03-31T10:43:28.978Z,100347.00
2023-03-31T10:46:02.997Z,100350.69
2023-03-31T10:48:36.066Z,100354.97
2023-03-31T10:51:17.594Z,100345.16
2023-03-31T10:53:47.142Z,100341.56
2023-03-31T10:56:35.104Z,100345.81
2023-03-31T10:59:20.491Z,100348.38
2023-03-31T11:02:21.247Z,100343.75
2023-03-31T11:05:00.137Z,100352.19
2023-03-31T11:07:45.666Z,100349.41
2023-03-31T11:10:51.296Z,100343.06
2023-03-31T11:13:40.510Z,100344.56
2023-03-31T11:16:13.038Z,100345.28
2023-03-31T11:18:50.607Z,100338.97
2023-03-31T11:21:28.054Z,100337.91
2023-03-31T11:24:22.277Z,100342.19
2023-03-31T11:27:01.686Z,100344.69
2023-03-31T11:29:57.723Z,100336.91
2023-03-31T11:32:41.761Z,100339.50
2023-03-31T11:35:21.409Z,100341.06
2023-03-31T11:38:11.789Z,100336.41
2023-03-31T11:40:58.271Z,100343.06
2023-03-31T11:43:30.017Z,100334.91
2023-03-31T11:46:12.388Z,100332.09
2023-03-31T11:48:46.185Z,100332.69
2023-03-31T11:51:35.341Z,100329.28
2023-03-31T11:54:12.131Z,100338.00
2023-03-31T11:56:41.256Z,100329.34
2023-03-31T11:59:16.008Z,100328.59
2023-03-31T12:01:51.558Z,100340.22
2023-03-31T12:04:33.797Z,100345.56
2023-03-31T12:07:18.739Z,100337.66
2023-03-31T12:10:05.592Z,100345.78
2023-03-31T12:12:39.711Z,100344.34
2023-03-31T12:15:19.406Z,100340.22
2023-03-31T12:17:51.126Z,100336.97
2023-03-31T12:20:41.382Z,100332.75
2023-03-31T12:23:17.535Z,100324.00
2023-03-31T12:25:52.538Z,100332.00
2023-03-31T12:28:20.441Z,100331.00
2023-03-31T12:30:48.252Z,100335.25
2023-03-31T12:33:37.508Z,100332.53
2023-03-31T12:36:16.589Z,100323.84
2023-03-31T12:39:08.872Z,100324.06
2023-03-31T12:41:54.272Z,100331.22
2023-03-31T12:44:29.958Z,100325.41
2023-03-31T12:47:33.832Z,100322.19
2023-03-31T12:50:16.491Z,100324.19
2023-03-31T12:53:19.917Z,100322.69
2023-03-31T12:55:54.295Z,100327.25
2023-03-31T12:58:34.957Z,100330.69
2023-03-31T13:01:06.623Z,100333.19
2023-03-31T13:03:53.988Z,100312.88
2023-03-31T13:06:29.804Z,100312.78
2023-03-31T13:09:00.935Z,100319.63
2023-03-31T13:11:33.298Z,100323.91
2023-03-31T13:14:02.587Z,100318.66
2023-03-31T13:16:35.095Z,100320.44
2023-03-31T13:19:02.083Z,100324.84
2023-03-31T13:21:28.860Z,100338.19
2023-03-31T13:24:01.518Z,100335.72
2023-03-31T13:26:34.253Z,100341.16
2023-03-31T13:29:14.504Z,100332.44
2023-03-31T13:32:02.881Z,100345.81
2023-03-31T13:34:51.284Z,100331.97
2023-03-31T13:37:45.261Z,100333.78
2023-03-31T13:40:33.395Z,100327.63
2023-03-31T13:43:32.506Z,100332.16
2023-03-31T13:46:27.106Z,100339.38
2023-03-31T13:49:22.194Z,100342.34
2023-03-31T13:52:13.441Z,100346.88
2023-03-31T13:55:06.091Z,100343.44
2023-03-31T13:57:38.822Z,100340.00
2023-03-31T14:00:43.000Z,100341.84
2023-03-31T14:03:28.741Z,100327.09
2023-03-31T14:06:02.357Z,100339.47
2023-03-31T14:08:44.238Z,100351.78
2023-03-31T14:11:25.690Z,100340.50
2023-03-31T14:14:15.746Z,100338.69
2023-03-31T14:16:45.803Z,100346.63
2023-03-31T14:19:29.281Z,100342.25
2023-03-31T14:22:08.116Z,100351.03
2023-03-31T14:25:01.245Z,100347.50
2023-03-31T14:27:58.512Z,100343.22
2023-03-31T14:30:38.537Z,100339.88
2023-03-31T14:33:40.925Z,100350.31
2023-03-31T14:36:22.363Z,100342.44
2023-03-31T14:38:49.056Z,100341.50
2023-03-31T14:41:21.208Z,100343.22
2023-03-31T14:43:51.401Z,100349.28
2023-03-31T14:46:22.252Z,100344.00
2023-03-31T14:48:51.281Z,100349.16
2023-03-31T14:51:30.867Z,100349.97
2023-03-31T14:54:01.749Z,100359.53
2023-03-31T14:56:40.608Z,100353.31
2023-03-31T14:59:08.549Z,100348.00
2023-03-31T15:01:38.463Z,100359.41
2023-03-31T15:04:11.324Z,100364.63
2023-03-31T15:06:40.029Z,100377.78
2023-03-31T15:09:07.987Z,100374.34
2023-03-31T15:11:35.153Z,100377.13
2023-03-31T15:14:05.579Z,100374.66
2023-03-31T15:16:43.335Z,100372.97
2023-03-31T15:19:24.953Z,100382.66
2023-03-31T15:22:02.126Z,100382.75
2023-03-31T15:24:29.872Z,100381.88
2023-03-31T15:27:06.237Z,100380.94
2023-03-31T15:29:41.564Z,100379.00
2023-03-31T15:32:18.844Z,100378.84
2023-03-31T15:34:46.590Z,100382.25
2023-03-31T15:37:13.525Z,100376.16
2023-03-31T15:39:47.394Z,100379.63
2023-03-31T15:42:14.364Z,100372.66
2023-03-31T15:44:53.720Z,100372.72
2023-03-31T15:47:25.354Z,100384.06
2023-03-31T15:50:13.272Z,100389.34
2023-03-31T15:52:47.989Z,100386.75
2023-03-31T15:55:23.785Z,100393.78
2023-03-31T15:57:51.865Z,100393.88
2023-03-31T16:00:33.566Z,100402.66
2023-03-31T16:03:04.067Z,100396.66
2023-03-31T16:05:53.668Z,100400.19
2023-03-31T16:08:37.573Z,100404.72
2023-03-31T16:11:13.534Z,100413.47
2023-03-31T16:13:44.759Z,100416.16
2023-03-31T16:16:15.623Z,100413.53
2023-03-31T16:19:04.147Z,100418.81
2023-03-31T16:21:40.186Z,100412.72
2023-03-31T16:24:07.244Z,100417.06
2023-03-31T16:26:34.583Z,100421.44
2023-03-31T16:29:01.576Z,100428.47
2023-03-31T16:31:39.561Z,100434.66
2023-03-31T16:34:11.167Z,100439.13
2023-03-31T16:36:37.982Z,100435.69
2023-03-31T16:39:05.928Z,100443.63
2023-03-31T16:41:33.940Z,100438.47
2023-03-31T16:44:00.719Z,100443.75
2023-03-31T16:46:28.044Z,100441.22
2023-03-31T16:48:54.805Z,100444.78
2023-03-31T16:51:21.819Z,100455.31
2023-03-31T16:53:48.656Z,100451.91
2023-03-31T16:56:16.368Z,100456.31
2023-03-31T16:58:43.828Z,100454.63
2023-03-31T17:01:11.238Z,100452.94
2023-03-31T17:03:41.625Z,100465.19
2023-03-31T17:06:12.491Z,100466.97
2023-03-31T17:08:40.073Z,100476.56
2023-03-31T17:11:14.469Z,100476.66
2023-03-31T17:13:42.648Z,100481.91
2023-03-31T17:16:20.356Z,100486.28
2023-03-31T17:18:51.238Z,100488.03
2023-03-31T17:21:22.004Z,100490.72
2023-03-31T17:23:49.895Z,100493.31
2023-03-31T17:26:18.564Z,100497.72
2023-03-31T17:28:45.602Z,100495.09
2023-03-31T17:31:14.088Z,100496.84
2023-03-31T17:33:41.960Z,100498.59
2023-03-31T17:36:08.755Z,100502.09
2023-03-31T17:38:35.742Z,100508.19
2023-03-31T17:41:06.037Z,100503.84
2023-03-31T17:43:33.482Z,100513.41
2023-03-31T17:46:05.247Z,100509.06
2023-03-31T17:48:34.183Z,100514.28
2023-03-31T17:51:08.880Z,100517.78
2023-03-31T17:53:36.420Z,100517.78
2023-03-31T17:56:04.413Z,100516.91
2023-03-31T17:58:32.349Z,100521.28
2023-03-31T18:00:59.372Z,100520.38
2023-03-31T18:03:29.498Z,100528.22
2023-03-31T18:05:56.470Z,100523.88
2023-03-31T18:08:23.185Z,100530.84
2023-03-31T18:10:50.612Z,100523.88
2023-03-31T18:13:18.676Z,100530.84
2023-03-31T18:15:52.527Z,100530.81
2023-03-31T18:18:20.782Z,100536.91
2023-03-31T18:20:47.588Z,100532.56
2023-03-31T18:23:14.950Z,100536.84
2023-03-31T18:25:46.299Z,100535.09
2023-03-31T18:28:18.264Z,100540.28
2023-03-31T18:30:46.375Z,100537.66
2023-03-31T18:33:13.394Z,100548.09
2023-03-31T18:35:40.480Z,100551.56
2023-03-31T18:38:07.841Z,100549.78
2023-03-31T18:40:34.685Z,100550.66
2023-03-31T18:43:02.748Z,100550.66
2023-03-31T18:45:30.774Z,100561.06
2023-03-31T18:47:57.959Z,100561.91
2023-03-31T18:50:25.945Z,100558.44
2023-03-31T18:52:54.548Z,100560.13
2023-03-31T18:55:22.257Z,100558.38
2023-03-31T18:57:49.352Z,100566.19
2023-03-31T19:00:17.359Z,100565.25
2023-03-31T19:02:44.240Z,100566.97
2023-03-31T19:05:11.174Z,100560.91
2023-03-31T19:07:38.108Z,100565.22
2023-03-31T19:10:05.121Z,100563.47
2023-03-31T19:12:31.774Z,100566.03
2023-03-31T19:14:58.571Z,100570.34
2023-03-31T19:17:25.774Z,100568.63
2023-03-31T19:19:52.722Z,100568.59
2023-03-31T19:22:19.755Z,100571.19
2023-03-31T19:24:46.495Z,100576.38
2023-03-31T19:27:13.221Z,100583.31
2023-03-31T19:29:39.935Z,100577.19
2023-03-31T19:32:07.076Z,100580.66
2023-03-31T19:34:34.281Z,100583.22
2023-03-31T19:37:02.173Z,100591.03
2023-03-31T19:39:29.080Z,100587.53
2023-03-31T19:41:55.816Z,100593.53
2023-03-31T19:44:22.590Z,100583.94
2023-03-31T19:46:49.367Z,100589.13
2023-03-31T19:49:16.547Z,100588.25
2023-03-31T19:51:43.328Z,100587.38
2023-03-31T19:54:11.790Z,100588.22
2023-03-31T19:56:38.979Z,100586.41
2023-03-31T19:59:06.187Z,100581.19
2023-03-31T20:01:33.270Z,100589.00
2023-03-31T20:04:00.316Z,100583.75
2023-03-31T20:06:29.095Z,100587.19
2023-03-31T20:08:58.868Z,100585.47
2023-03-31T20:11:27.034Z,100577.66
2023-03-31T20:13:54.739Z,100575.03
2023-03-31T20:16:23.791Z,100576.78
2023-03-31T20:18:58.789Z,100581.13
2023-03-31T20:21:27.920Z,100573.25
2023-03-31T20:23:56.449Z,100575.78
2023-03-31T20:26:26.500Z,100576.63
2023-03-31T20:28:54.974Z,100584.34
2023-03-31T20:31:26.854Z,100573.09
2023-03-31T20:33:54.792Z,100583.50
2023-03-31T20:36:29.290Z,100584.34
2023-03-31T20:38:57.310Z,100577.41
2023-03-31T20:41:26.911Z,100579.16
2023-03-31T20:43:54.706Z,100579.97
2023-03-31T20:46:22.449Z,100577.34
2023-03-31T20:48:51.487Z,100586.84
2023-03-31T20:51:22.055Z,100582.50
2023-03-31T20:53:52.838Z,100579.03
2023-03-31T20:56:21.150Z,100583.34
2023-03-31T20:58:49.197Z,100588.50
2023-03-31T21:01:17.955Z,100589.34
2023-03-31T21:03:44.959Z,100594.53
2023-03-31T21:06:14.281Z,100596.19
2023-03-31T21:08:43.217Z,100595.28
2023-03-31T21:11:10.101Z,100598.75
2023-03-31T21:13:37.191Z,100605.66
2023-03-31T21:16:04.852Z,100596.97
2023-03-31T21:18:33.985Z,100594.31
2023-03-31T21:21:07.221Z,100602.94
2023-03-31T21:23:34.070Z,100609.81
2023-03-31T21:26:02.658Z,100604.56
2023-03-31T21:28:31.925Z,100601.06
2023-03-31T21:31:04.865Z,100609.72
2023-03-31T21:33:32.804Z,100605.38
2023-03-31T21:35:59.551Z,100603.66
2023-03-31T21:38:27.998Z,100607.09
2023-03-31T21:40:57.706Z,100615.75
2023-03-31T21:43:25.940Z,100613.09
2023-03-31T21:45:57.278Z,100619.94
2023-03-31T21:48:26.353Z,100615.56
2023-03-31T21:50:54.902Z,100613.78
2023-03-31T21:53:23.069Z,100619.84
2023-03-31T21:55:55.603Z,100624.13
2023-03-31T21:58:28.757Z,100622.31
2023-03-31T22:00:58.046Z,100624.88
2023-03-31T22:03:29.220Z,100623.97
2023-03-31T22:05:56.999Z,100623.97
2023-03-31T22:08:24.445Z,100626.53
2023-03-31T22:10:52.162Z,100628.25
2023-03-31T22:13:21.230Z,100631.72
2023-03-31T22:15:48.020Z,100628.22
2023-03-31T22:18:14.871Z,100622.09
2023-03-31T22:20:42.028Z,100619.50
2023-03-31T22:23:10.284Z,100625.56
2023-03-31T22:25:37.266Z,100621.22
2023-03-31T22:28:06.970Z,100620.38
2023-03-31T22:30:34.061Z,100621.19
2023-03-31T22:33:01.037Z,100625.50
2023-03-31T22:35:28.424Z,100618.53
2023-03-31T22:37:55.121Z,100618.47
2023-03-31T22:40:21.969Z,100619.34
2023-03-31T22:42:48.645Z,100630.59
2023-03-31T22:45:15.763Z,100631.50
2023-03-31T22:47:42.658Z,100627.19
2023-03-31T22:50:11.268Z,100625.47
2023-03-31T22:52:38.271Z,100624.53
2023-03-31T22:55:06.327Z,100624.53
2023-03-31T22:57:33.839Z,100633.19
2023-03-31T23:00:00.877Z,100637.53
2023-03-31T23:02:27.647Z,100640.13
2023-03-31T23:04:54.378Z,100631.41
2023-03-31T23:07:22.101Z,100636.56
2023-03-31T23:09:48.981Z,100642.66
2023-03-31T23:12:16.048Z,100634.81
2023-03-31T23:14:42.779Z,100636.50
2023-03-31T23:17:09.464Z,100644.28
2023-03-31T23:19:37.884Z,100639.94
2023-03-31T23:22:05.828Z,100633.88
2023-03-31T23:24:32.557Z,100645.09
2023-03-31T23:26:59.224Z,100642.50
2023-03-31T23:29:25.955Z,100645.09
2023-03-31T23:31:52.756Z,100646.84
2023-03-31T23:34:19.430Z,100645.03
2023-03-31T23:36:46.186Z,100645.03
2023-03-31T23:39:12.821Z,100646.81
2023-03-31T23:41:39.748Z,100636.38
2023-03-31T23:44:06.880Z,100645.78
2023-03-31T23:46:33.875Z,100644.97
2023-03-31T23:49:02.831Z,100644.97
2023-03-31T23:51:29.630Z,100643.19
2023-03-31T23:53:56.428Z,100653.59
2023-03-31T23:56:23.470Z,100654.44
2023-03-31T23:58:50.192Z,100652.66
